Impacts TAF Board INFO
FOR SITUATIONAL AWARENESS. NOT TO BE USED FOR FLIGHT PLANNING PURPOSES.
IDs:

KMDW - Chicago/Midway Intl, IL, US

Issued at 0901 UTC 17 Dec 2017
Updated at 0951 UTC 17 Dec 2017
Potential Impact None Slight Moderate High
Time0853Z 17/10Z 17/11Z 17/12Z 17/13Z 17/14Z 17/15Z 17/16Z 17/17Z 17/18Z 17/19Z 17/20Z 17/21Z 17/22Z>>
Type OBS PRVL PRVL PRVL PRVL PRVL PRVL PRVL PRVL PRVL PRVL PRVL PRVL PRVL
VIS 10 6 6 6 6 6 6 >6 >6 >6 >6 >6 >6 >6
CIG -- 200 200 200 200 200 200 150 150 150 150 150 150 150
Cover SCT OVC OVC OVC OVC OVC OVC OVC OVC OVC OVC OVC OVC OVC
FltCat VFR VFR VFR VFR VFR VFR VFR VFR VFR VFR VFR VFR VFR VFR
WX -- BR BCFG BR BCFG BR BCFG BR BCFG BR BCFG BR BCFG -- -- -- -- -- -- --
WDir 360 VRB VRB VRB VRB VRB VRB 200 200 200 200 200 200 200
WSpd 4 3 3 3 3 3 3 4 4 4 4 4 4 4
WGst -- -- -- -- -- -- -- -- -- -- -- -- -- --

Raw TAF
KMDW 170901Z 1709/1812 VRB03KT 6SM BR BCFG OVC200
  FM171600 20004KT P6SM OVC150
  FM180200 22005KT 4SM BR OVC012
  PROB30 1806/1812 1SM -DZ BR BCFG OVC006


Raw METAR
KMDW 170853Z 36004KT 10SM SCT250 01/00 A3007 RMK AO2 SLP190 T00110000 53009
KMDW 170753Z 00000KT 10SM SCT250 02/00 A3006 RMK AO2 SLP186 T00170000
KMDW 170653Z 36004KT 10SM SCT250 02/00 A3005 RMK AO2 SLP182 T00170000

METAR Board
Radar Display
Forecast Discussion

FOR SITUATIONAL AWARENESS. NOT TO BE USED FOR FLIGHT PLANNING PURPOSES.